BRG52 PAOM-PAIW

Flight info

Callsign BRG52
Flight time 0h 32m
Altitude 9000
Route PAOM PAIW
Aircraft C408/L-VGDW/C

Departure

Time 2026-04-28 01:10
Airport Nome Airport (PAOM)

Arrival

Time 2026-04-28 01:42
Airport Wales Airport (PAIW)
Time Latitude Longitude Altitude Speed Heading
2026-04-28 01:01 64.50801 -165.44445 32 ft 0 kts 132°
2026-04-28 01:07 64.50800 -165.44423 33 ft 5 kts 76°
2026-04-28 01:07 64.50835 -165.44405 33 ft 10 kts 345°
2026-04-28 01:08 64.50927 -165.44474 34 ft 0 kts 316°
2026-04-28 01:09 64.50973 -165.44585 33 ft 16 kts 315°
2026-04-28 01:09 64.51025 -165.44559 33 ft 14 kts 43°
2026-04-28 01:10 64.51295 -165.44000 50 ft 84 kts 41°
2026-04-28 01:10 64.51782 -165.42956 405 ft 108 kts 43°
2026-04-28 01:10 64.52382 -165.41644 804 ft 128 kts 43°
2026-04-28 01:10 64.53069 -165.40234 1365 ft 134 kts 43°
2026-04-28 01:11 64.53782 -165.38810 1900 ft 137 kts 43°
2026-04-28 01:11 64.54511 -165.37407 2429 ft 139 kts 43°
2026-04-28 01:11 64.55252 -165.35980 2947 ft 138 kts 43°
2026-04-28 01:11 64.56000 -165.34543 3478 ft 143 kts 44°
2026-04-28 01:12 64.56778 -165.33074 4005 ft 146 kts 44°
2026-04-28 01:12 64.57740 -165.32274 4516 ft 158 kts
2026-04-28 01:12 64.58798 -165.33143 5023 ft 171 kts 324°
2026-04-28 01:12 64.59618 -165.35209 5550 ft 175 kts 314°
2026-04-28 01:13 64.60430 -165.37311 6093 ft 175 kts 315°
2026-04-28 01:13 64.62103 -165.41517 7110 ft 177 kts 315°
2026-04-28 01:13 64.62925 -165.43611 7623 ft 178 kts 315°
2026-04-28 01:14 64.63758 -165.45726 8156 ft 177 kts 316°
2026-04-28 01:14 64.64595 -165.47854 8684 ft 179 kts 316°
2026-04-28 01:14 64.65456 -165.50040 9003 ft 193 kts 315°
2026-04-28 01:14 64.66416 -165.52461 9010 ft 211 kts 315°
2026-04-28 01:15 64.67425 -165.55044 9013 ft 219 kts 315°
2026-04-28 01:15 64.68455 -165.57687 9007 ft 220 kts 315°
2026-04-28 01:15 64.69491 -165.60319 9008 ft 222 kts 315°
2026-04-28 01:15 64.70519 -165.62955 9022 ft 223 kts 314°
2026-04-28 01:16 64.71563 -165.65621 9019 ft 222 kts 315°
2026-04-28 01:16 64.72601 -165.68301 9016 ft 223 kts 315°
2026-04-28 01:16 64.73641 -165.70982 9015 ft 223 kts 315°
2026-04-28 01:16 64.74691 -165.73668 9011 ft 224 kts 315°
2026-04-28 01:17 64.75738 -165.76359 9013 ft 223 kts 315°
2026-04-28 01:17 64.76781 -165.79053 9008 ft 223 kts 315°
2026-04-28 01:17 64.77825 -165.81747 9014 ft 223 kts 314°
2026-04-28 01:17 64.78867 -165.84442 9012 ft 223 kts 315°
2026-04-28 01:18 64.79913 -165.87148 9010 ft 224 kts 314°
2026-04-28 01:18 64.80944 -165.89815 9011 ft 224 kts 314°
2026-04-28 01:18 64.81987 -165.92523 9013 ft 224 kts 314°
2026-04-28 01:18 64.83031 -165.95237 9010 ft 224 kts 314°
2026-04-28 01:19 64.84075 -165.97950 9022 ft 224 kts 314°
2026-04-28 01:19 64.85119 -166.00667 9017 ft 224 kts 314°
2026-04-28 01:19 64.86159 -166.03381 9024 ft 222 kts 313°
2026-04-28 01:19 64.87191 -166.06079 9020 ft 221 kts 314°
2026-04-28 01:20 64.88222 -166.08764 9020 ft 220 kts 314°
2026-04-28 01:20 64.89249 -166.11449 9018 ft 220 kts 314°
2026-04-28 01:20 64.90259 -166.14097 9011 ft 220 kts 314°
2026-04-28 01:20 64.91281 -166.16781 9015 ft 220 kts 314°
2026-04-28 01:21 64.92291 -166.19432 9011 ft 220 kts 314°
2026-04-28 01:21 64.93328 -166.22157 9012 ft 220 kts 314°
2026-04-28 01:21 64.94351 -166.24850 9016 ft 220 kts 314°
2026-04-28 01:21 64.95372 -166.27543 9009 ft 221 kts 314°
2026-04-28 01:22 64.96396 -166.30246 9011 ft 221 kts 314°
2026-04-28 01:22 64.97418 -166.32945 9007 ft 220 kts 314°
2026-04-28 01:22 64.98438 -166.35642 9012 ft 220 kts 314°
2026-04-28 01:22 64.99459 -166.38348 9009 ft 220 kts 313°
2026-04-28 01:23 65.00465 -166.41012 9019 ft 221 kts 313°
2026-04-28 01:23 65.01489 -166.43736 9020 ft 222 kts 313°
2026-04-28 01:23 65.02514 -166.46464 9021 ft 222 kts 313°
2026-04-28 01:23 65.03539 -166.49193 9024 ft 222 kts 313°
2026-04-28 01:24 65.04567 -166.51931 9019 ft 222 kts 313°
2026-04-28 01:24 65.05592 -166.54666 9025 ft 222 kts 313°
2026-04-28 01:24 65.06615 -166.57400 9016 ft 222 kts 313°
2026-04-28 01:24 65.07639 -166.60140 9021 ft 222 kts 313°
2026-04-28 01:25 65.08646 -166.62841 9019 ft 222 kts 313°
2026-04-28 01:25 65.09669 -166.65582 9022 ft 222 kts 313°
2026-04-28 01:25 65.10693 -166.68331 9029 ft 222 kts 313°
2026-04-28 01:25 65.11715 -166.71080 9031 ft 222 kts 311°
2026-04-28 01:26 65.12735 -166.73828 9028 ft 222 kts 312°
2026-04-28 01:26 65.13753 -166.76572 9026 ft 222 kts 312°
2026-04-28 01:26 65.14773 -166.79321 9025 ft 222 kts 312°
2026-04-28 01:26 65.15790 -166.82075 9031 ft 222 kts 312°
2026-04-28 01:27 65.16808 -166.84831 9025 ft 222 kts 312°
2026-04-28 01:27 65.17812 -166.87549 9031 ft 222 kts 312°
2026-04-28 01:27 65.18830 -166.90309 9025 ft 222 kts 312°
2026-04-28 01:27 65.19844 -166.93065 9014 ft 222 kts 312°
2026-04-28 01:28 65.20861 -166.95832 9025 ft 222 kts 312°
2026-04-28 01:28 65.21877 -166.98596 9028 ft 222 kts 312°
2026-04-28 01:28 65.22892 -167.01365 9022 ft 222 kts 311°
2026-04-28 01:28 65.23905 -167.04134 9017 ft 222 kts 311°
2026-04-28 01:29 65.24921 -167.06908 9028 ft 222 kts 311°
2026-04-28 01:29 65.25933 -167.09680 9018 ft 222 kts 311°
2026-04-28 01:29 65.26932 -167.12416 9027 ft 222 kts 311°
2026-04-28 01:29 65.27945 -167.15198 9029 ft 222 kts 311°
2026-04-28 01:30 65.28959 -167.17984 9018 ft 222 kts 311°
2026-04-28 01:30 65.29972 -167.20768 9029 ft 222 kts 311°
2026-04-28 01:30 65.30983 -167.23554 9027 ft 222 kts 311°
2026-04-28 01:30 65.31994 -167.26345 9036 ft 222 kts 311°
2026-04-28 01:31 65.33004 -167.29133 9039 ft 222 kts 311°
2026-04-28 01:31 65.34014 -167.31923 9043 ft 222 kts 311°
2026-04-28 01:31 65.35021 -167.34714 9047 ft 222 kts 311°
2026-04-28 01:31 65.36017 -167.37476 9046 ft 222 kts 311°
2026-04-28 01:32 65.37006 -167.40300 9041 ft 221 kts 304°
2026-04-28 01:32 65.37486 -167.43736 9035 ft 218 kts 276°
2026-04-28 01:32 65.37616 -167.47354 9038 ft 218 kts 272°
2026-04-28 01:32 65.37732 -167.50981 9044 ft 218 kts 274°
2026-04-28 01:33 65.37940 -167.54615 8901 ft 224 kts 278°
2026-04-28 01:33 65.38201 -167.58383 8506 ft 232 kts 278°
2026-04-28 01:33 65.38457 -167.62239 8018 ft 236 kts 278°
2026-04-28 01:33 65.38698 -167.66146 7499 ft 237 kts 278°
2026-04-28 01:34 65.38940 -167.70045 6929 ft 237 kts 278°
2026-04-28 01:34 65.39180 -167.73852 6305 ft 231 kts 278°
2026-04-28 01:34 65.39417 -167.77629 5641 ft 227 kts 279°
2026-04-28 01:34 65.39649 -167.81364 4995 ft 225 kts 279°
2026-04-28 01:35 65.39878 -167.85057 4348 ft 223 kts 279°
2026-04-28 01:35 65.40098 -167.88635 4172 ft 208 kts 279°
2026-04-28 01:35 65.40305 -167.92002 4169 ft 201 kts 279°
2026-04-28 01:35 65.40512 -167.95376 3761 ft 211 kts 279°
2026-04-28 01:36 65.40729 -167.98915 3137 ft 216 kts 279°
2026-04-28 01:36 65.40943 -168.02488 2518 ft 216 kts 279°
2026-04-28 01:36 65.41155 -168.05985 2281 ft 204 kts 279°
2026-04-28 01:36 65.41381 -168.09228 2269 ft 195 kts 287°
2026-04-28 01:37 65.41976 -168.12092 2270 ft 191 kts 308°
2026-04-28 01:37 65.42935 -168.14250 2175 ft 187 kts 330°
2026-04-28 01:37 65.44035 -168.15401 2073 ft 164 kts 349°
2026-04-28 01:37 65.45132 -168.15626 2068 ft 155 kts
2026-04-28 01:38 65.46188 -168.15238 2074 ft 153 kts 12°
2026-04-28 01:38 65.47241 -168.14867 2077 ft 153 kts 10°
2026-04-28 01:38 65.48300 -168.14510 2079 ft 154 kts 10°
2026-04-28 01:38 65.49359 -168.14135 2078 ft 153 kts 11°
2026-04-28 01:39 65.50400 -168.13762 2084 ft 153 kts 11°
2026-04-28 01:39 65.51452 -168.13393 2092 ft 152 kts 10°
2026-04-28 01:39 65.52490 -168.13043 1955 ft 141 kts 10°
2026-04-28 01:39 65.53152 -168.12818 1796 ft 147 kts 10°
2026-04-28 01:40 65.54524 -168.12315 1598 ft 153 kts 11°
2026-04-28 01:40 65.55482 -168.11936 1336 ft 130 kts 11°
2026-04-28 01:40 65.56355 -168.11627 1141 ft 123 kts
2026-04-28 01:40 65.57203 -168.11323 951 ft 122 kts 11°
2026-04-28 01:41 65.58039 -168.11033 756 ft 117 kts
2026-04-28 01:41 65.58788 -168.10797 587 ft 107 kts 11°
2026-04-28 01:41 65.59541 -168.10513 449 ft 108 kts
2026-04-28 01:41 65.60273 -168.10270 248 ft 104 kts 10°
2026-04-28 01:42 65.60951 -168.09990 184 ft 98 kts 11°
2026-04-28 01:42 65.61628 -168.09701 58 ft 93 kts
2026-04-28 01:42 65.62084 -168.09567 42 ft 32 kts
2026-04-28 01:42 65.62174 -168.09545 44 ft 0 kts 336°
2026-04-28 01:43 65.62194 -168.09563 43 ft 2 kts
2026-04-28 01:43 65.62198 -168.09560 43 ft 0 kts 26°
2026-04-28 01:43 65.62195 -168.09483 43 ft 7 kts 135°
2026-04-28 01:43 65.62161 -168.09498 44 ft 11 kts 198°
2026-04-28 01:44 65.62102 -168.09541 42 ft 16 kts 195°
2026-04-28 01:44 65.61933 -168.09620 40 ft 20 kts 186°
2026-04-28 01:44 65.61795 -168.09652 42 ft 20 kts 185°
2026-04-28 01:44 65.61692 -168.09632 44 ft 7 kts 127°
2026-04-28 01:45 65.61673 -168.09473 40 ft 10 kts 103°
2026-04-28 01:45 65.61672 -168.09463 39 ft 0 kts 103°